METAR Data
IDs: Format: Raw Decoded Include TAF

Data at: 0737 UTC 18 Nov 2018

PASD 180728Z AUTO 00000KT 10SM SCT027 05/04 A2941 RMK AO2 PNO $
PASD 180706Z AUTO 00000KT 10SM BKN029 OVC110 06/04 A2940 RMK AO2 PNO $
PASD 180639Z AUTO 00000KT 10SM BKN031 OVC110 06/04 A2939 RMK AO2 PNO $
PASD 180456Z AUTO 26005KT 10SM BKN029 07/04 A2939 RMK AO2 SLP953 T00670039 PNO $
PASD 180354Z 22005KT 10SM FEW029 SCT042 07/04 A2937 RMK AO2 LAST PNO $
PASD 180258Z 18003KT 10SM FEW014 SCT021 BKN045 07/04 A2936 RMK AO2 PNO $
PASD 180256Z 18003KT 10SM FEW014 SCT021 BKN045 07/04 A2936 RMK AO2 SLP945 6//// T00720044 53012 PNO $
PASD 180252Z 19005KT 10SM FEW014 SCT021 BKN045 07/05 A2936 RMK AO2 PNO $
PASD 180156Z 25004KT 10SM FEW018 SCT028 BKN040 07/04 A2934 RMK AO2 SLP938 T00720044 PNO $
PASD 180058Z 24005KT 10SM FEW018 SCT028 BKN040 08/04 A2933 RMK AO2 PNO $
PASD 180056Z 25005KT 10SM FEW018 SCT028 BKN040 08/04 A2933 RMK AO2 SLP935 T00780039 PNO $
PASD 172358Z 27005KT 10SM FEW020 SCT031 BKN044 08/04 A2933 RMK AO2 PNO $
PASD 172356Z 27005KT 10SM FEW020 SCT031 BKN044 08/04 A2933 RMK AO2 SLP933 6//// T00780044 10078 20061 53008 PNO $
PASD 172352Z 29004KT 10SM FEW020 SCT031 BKN044 08/04 A2933 RMK AO2 PNO $
PASD 172321Z 27007KT 10SM FEW022 SCT038 BKN050 08/04 A2932 RMK AO2 PNO $
PASD 172304Z 26010KT 10SM FEW022 FEW038 SCT050 08/04 A2931 RMK AO2 PNO $
PASD 172252Z 28010KT 10SM FEW022 FEW038 SCT050 08/05 A2931 RMK AO2 RAE00 PNO $
PASD 172207Z 28008KT 10SM FEW022 FEW038 BKN050 07/05 A2931 RMK AO2 RAE00 PNO $
PASD 172156Z 28007KT 10SM -RA FEW022 BKN038 BKN050 08/06 A2930 RMK AO2 RAE07B36 SLP926 T00780056 PNO $
PASD 172152Z 29006KT 10SM -RA FEW022 BKN038 BKN050 07/06 A2931 RMK AO2 RAE07B36 PNO $
PASD 172127Z 27006KT 10SM FEW018 BKN028 BKN040 07/06 A2930 RMK AO2 RAE07 PNO $
PASD 172117Z 28005KT 10SM FEW012 BKN027 BKN040 07/06 A2930 RMK AO2 RAE07 PNO $
PASD 172103Z 29006KT 10SM -RA OVC014 07/05 A2930 RMK AO2 PNO $
PASD 172056Z 30007KT 10SM -RA FEW012 BKN027 BKN040 07/05 A2930 RMK AO2 SLP925 6//// T00670050 53009 PNO $
PASD 172052Z 30008KT 10SM -RA FEW012 BKN027 BKN040 07/05 A2930 RMK AO2 PNO $
PASD 172037Z 31009KT 10SM -RA FEW012 BKN026 OVC038 07/05 A2930 RMK AO2 PNO $
PASD 171958Z 34010KT 6SM -RA BR FEW007 BKN018 OVC028 06/06 A2929 RMK AO2 PNO $
PASD 171956Z 34011KT 6SM -RA BR FEW007 BKN018 OVC028 06/06 A2928 RMK AO2 SLP919 T00610056 PNO $
PASD 171903Z 36013KT 1SM RA BR OVC010 06/06 A2928 RMK AO2 PNO $
PASD 171853Z 36010KT 1SM RA BR OVC010 06/05 A2928 RMK AO2 PNO $
PASD 171801Z 02008KT 1SM -RA BR OVC010 06/06 A2927 RMK AO2 PNO $
PASD 171756Z 36008KT 2SM -RA BR OVC010 06/06 A2927 RMK AO2 SLP915 6//// T00610056 10067 20056 56012 PNO $
PASD 171752Z 01007KT 2SM -RA BR OVC010 06/06 A2927 RMK AO2 PNO $
PASD 171728Z 01006KT 6SM -RA BR SCT010 BKN015 OVC027 06/06 A2927 RMK AO2 PNO $
PASD 171656Z 01009KT 10SM -RA BKN010 OVC027 07/06 A2928 RMK AO2 CIG 008V013 SLP917 T00670056 PNO $
PASD 171644Z 02006KT 10SM -RA BKN013 OVC027 06/06 A2928 RMK AO2 PNO $
PASD 171556Z 02003KT 5SM RA BR BKN017 OVC023 06/04 A2930 RMK AO2 SLP923 T00610044 PNO $
PASD 171456Z AUTO 00000KT 10SM -RA FEW018 OVC025 06/04 A2931 RMK AO2 SLP927 6//// T00560039 56025 PNO $
PASD 171434Z AUTO 00000KT 10SM -RA FEW017 BKN027 OVC034 06/04 A2932 RMK AO2 PNO $
PASD 171356Z AUTO 00000KT 10SM -RA FEW014 SCT019 OVC040 06/04 A2933 RMK AO2 SLP934 T00560044 PNO $
PASD 171330Z AUTO 02003KT 10SM -RA FEW014 BKN020 OVC039 06/04 A2934 RMK AO2 PNO $
PASD 171230Z AUTO 00000KT 10SM -RA SCT025 OVC035 06/04 A2937 RMK AO2 PNO $
PASD 171156Z AUTO 13005KT 10SM -RA FEW006 BKN027 OVC033 07/05 A2938 RMK AO2 SLP952 6//// 7//// T00670050 10072 20067 58021 PNO $
PASD 171056Z AUTO 13007KT 10SM -RA OVC014 07/06 A2940 RMK AO2 RAE28B53 SLP959 T00720056 PNO $
PASD 171027Z AUTO 13004KT 9SM -RA FEW007 OVC012 07/06 A2941 RMK AO2 PNO $
PASD 170956Z AUTO 11003KT 7SM -RA OVC012 07/06 A2942 RMK AO2 RAB29 SLP965 T00670056 PNO $
PASD 170918Z AUTO 16005KT 9SM BKN014 OVC018 07/05 A2943 RMK AO2 PNO $
PASD 170756Z AUTO 16007KT 10SM OVC018 07/05 A2945 RMK AO2 SLP977 T00720050 PNO $
PASD 170656Z AUTO 14004KT 10SM BKN018 OVC120 07/05 A2947 RMK AO2 SLP980 T00720050 PNO $
PASD 170556Z AUTO 14007KT 10SM CLR 07/04 A2948 RMK AO2 SLP984 6//// T00670044 10089 20061 56010 PNO $
PASD 170416Z AUTO 00000KT 10SM CLR 07/04 A2950 RMK AO2 PNO $
PASD 170356Z 00000KT 10SM CLR 07/05 A2950 RMK AO2 SLP993 LAST T00720050 PNO $
PASD 170352Z 00000KT 10SM CLR 07/05 A2950 RMK AO2 LAST PNO $
PASD 170256Z 06004KT 10SM FEW017 BKN038 BKN050 07/04 A2951 RMK AO2 SLP994 6//// T00720044 56010 PNO $
PASD 170251Z 07004KT 10SM FEW017 BKN038 BKN050 07/04 A2951 RMK AO2 PNO $
PASD 170156Z 30004KT 10SM FEW017 BKN038 BKN050 08/05 A2951 RMK AO2 SLP996 T00830050 PNO $
PASD 170056Z 00000KT 10SM FEW025 BKN035 BKN040 09/06 A2953 RMK AO2 SLP002 T00890056 PNO $
PASD 170004Z 00000KT 10SM FEW023 BKN034 BKN040 09/06 A2953 RMK AO2 PNO $
PASD 162256Z 30006KT 10SM FEW027 BKN036 BKN050 08/06 A2954 RMK AO2 SLP007 T00830056 PNO $
PASD 162156Z 29003KT 10SM FEW025 BKN038 BKN045 08/06 A2955 RMK AO2 SLP010 T00830056 PNO $
PASD 162108Z 00000KT 10SM SCT033 BKN040 BKN050 08/05 A2956 RMK AO2 PNO $
PASD 162056Z 00000KT 10SM SCT033 BKN040 BKN050 08/05 A2956 RMK AO2 SLP014 6//// T00780050 50000 PNO $
PASD 162002Z 00000KT 10SM FEW031 BKN041 BKN050 08/04 A2956 RMK AO2 PNO $
PASD 161956Z 01003KT 10SM FEW031 BKN041 BKN050 08/04 A2956 RMK AO2 SLP012 T00780044 PNO $